createdAt,value
2023-12-11T00:01:10.363Z,81.50
2023-12-11T00:03:56.038Z,82.20
2023-12-11T00:06:42.324Z,82.70
2023-12-11T00:09:27.861Z,83.20
2023-12-11T00:12:13.102Z,83.20
2023-12-11T00:15:00.774Z,83.00
2023-12-11T00:17:46.019Z,82.80
2023-12-11T00:20:31.612Z,83.00
2023-12-11T00:23:17.156Z,83.00
2023-12-11T00:26:02.503Z,83.90
2023-12-11T00:28:48.638Z,84.70
2023-12-11T00:31:34.286Z,85.00
2023-12-11T00:34:19.974Z,85.60
2023-12-11T00:37:05.823Z,85.80
2023-12-11T00:39:51.614Z,86.40
2023-12-11T00:42:37.489Z,86.00
2023-12-11T00:45:22.960Z,86.40
2023-12-11T00:48:08.503Z,87.10
2023-12-11T00:50:54.379Z,87.70
2023-12-11T00:53:39.638Z,88.30
2023-12-11T00:56:25.426Z,88.90
2023-12-11T00:59:11.061Z,89.10
2023-12-11T01:01:56.857Z,89.40
2023-12-11T01:04:42.456Z,89.30
2023-12-11T01:07:28.591Z,88.90
2023-12-11T01:10:14.465Z,88.90
2023-12-11T01:13:00.508Z,88.90
2023-12-11T01:15:45.804Z,88.90
2023-12-11T01:18:31.725Z,89.00
2023-12-11T01:21:17.461Z,89.80
2023-12-11T01:24:02.821Z,89.60
2023-12-11T01:26:48.273Z,89.70
2023-12-11T01:29:33.639Z,90.10
2023-12-11T01:32:19.368Z,90.30
2023-12-11T01:35:05.192Z,90.20
2023-12-11T01:37:50.906Z,90.40
2023-12-11T01:40:36.330Z,90.30
2023-12-11T01:43:21.966Z,90.70
2023-12-11T01:46:19.290Z,90.80
2023-12-11T01:49:05.023Z,91.00
2023-12-11T01:51:50.677Z,91.60
2023-12-11T01:54:38.863Z,92.00
2023-12-11T01:57:24.157Z,91.80
2023-12-11T02:00:10.552Z,92.50
2023-12-11T02:02:56.091Z,92.70
2023-12-11T02:05:44.074Z,92.50
2023-12-11T02:08:29.550Z,92.20
2023-12-11T02:11:15.166Z,91.80
2023-12-11T02:14:00.422Z,92.00
2023-12-11T02:16:46.015Z,92.20
2023-12-11T02:19:31.406Z,92.30
2023-12-11T02:22:17.111Z,91.70
2023-12-11T02:25:05.402Z,91.50
2023-12-11T02:27:51.211Z,91.60
2023-12-11T02:30:40.312Z,91.90
2023-12-11T02:33:26.021Z,92.30
2023-12-11T02:36:11.427Z,91.30
2023-12-11T02:38:56.939Z,91.70
2023-12-11T02:41:42.239Z,91.70
2023-12-11T02:44:27.918Z,91.20
2023-12-11T02:47:13.526Z,91.10
2023-12-11T02:49:59.000Z,91.00
2023-12-11T02:52:44.829Z,91.80
2023-12-11T02:55:30.691Z,92.00
2023-12-11T02:58:16.714Z,91.90
2023-12-11T03:01:02.074Z,92.00
2023-12-11T03:03:47.667Z,92.20
2023-12-11T03:06:33.695Z,92.50
2023-12-11T03:09:19.534Z,92.50
2023-12-11T03:12:04.933Z,92.50
2023-12-11T03:14:50.261Z,92.40
2023-12-11T03:17:36.064Z,93.10
2023-12-11T03:20:22.033Z,93.30
2023-12-11T03:23:07.341Z,93.50
2023-12-11T03:25:53.134Z,93.50
2023-12-11T03:28:38.671Z,92.50
2023-12-11T03:31:24.309Z,91.60
2023-12-11T03:34:09.960Z,91.10
2023-12-11T03:36:56.716Z,90.30
2023-12-11T03:39:43.627Z,90.00
2023-12-11T03:42:29.595Z,89.70
2023-12-11T03:45:14.980Z,89.60
2023-12-11T03:48:00.519Z,88.80
2023-12-11T03:50:46.171Z,89.00
2023-12-11T03:53:31.537Z,88.60
2023-12-11T03:56:17.012Z,88.60
2023-12-11T03:59:02.320Z,88.80
2023-12-11T04:01:47.825Z,88.50
2023-12-11T04:04:33.517Z,88.90
2023-12-11T04:07:19.108Z,89.00
2023-12-11T04:10:05.405Z,89.80
2023-12-11T04:12:50.948Z,89.90
2023-12-11T04:15:36.443Z,90.40
2023-12-11T04:18:21.901Z,91.50
2023-12-11T04:21:08.200Z,90.90
2023-12-11T04:23:56.157Z,90.90
2023-12-11T04:26:41.721Z,90.70
2023-12-11T04:29:27.476Z,90.60
2023-12-11T04:32:13.102Z,90.00
2023-12-11T04:34:58.552Z,90.10
2023-12-11T04:37:44.120Z,89.70
2023-12-11T04:40:29.316Z,88.70
2023-12-11T04:43:14.862Z,88.40
2023-12-11T04:46:01.232Z,88.30
2023-12-11T04:48:46.969Z,87.50
2023-12-11T04:51:32.632Z,87.70
2023-12-11T04:54:17.915Z,87.70
2023-12-11T04:57:03.827Z,88.00
2023-12-11T04:59:49.408Z,87.80
2023-12-11T05:02:34.987Z,88.00
2023-12-11T05:05:20.501Z,87.80
2023-12-11T05:08:05.932Z,88.50
2023-12-11T05:10:51.613Z,88.20
2023-12-11T05:13:37.106Z,88.50
2023-12-11T05:16:25.793Z,88.30
2023-12-11T05:19:12.437Z,88.70
2023-12-11T05:22:00.783Z,89.10
2023-12-11T05:24:46.163Z,89.40
2023-12-11T05:27:31.732Z,90.00
2023-12-11T05:30:18.196Z,90.30
2023-12-11T05:33:04.823Z,91.00
2023-12-11T05:35:50.490Z,91.20
2023-12-11T05:38:36.123Z,91.90
2023-12-11T05:41:22.070Z,91.40
2023-12-11T05:44:10.233Z,91.00
2023-12-11T05:46:56.580Z,92.50
2023-12-11T05:49:41.974Z,91.80
2023-12-11T05:52:27.826Z,91.40
2023-12-11T05:55:13.584Z,92.30
2023-12-11T05:57:59.066Z,92.00
2023-12-11T06:00:46.133Z,92.60
2023-12-11T06:03:32.342Z,92.70
2023-12-11T06:06:18.538Z,92.20
2023-12-11T06:09:03.814Z,92.40
2023-12-11T06:11:49.399Z,92.00
2023-12-11T06:14:35.116Z,92.60
2023-12-11T06:17:20.846Z,92.80
2023-12-11T06:20:07.054Z,92.90
2023-12-11T06:22:52.506Z,93.10
2023-12-11T06:25:37.883Z,93.10
2023-12-11T06:28:23.452Z,93.50
2023-12-11T06:31:09.032Z,93.30
2023-12-11T06:33:55.381Z,93.20
2023-12-11T06:36:41.159Z,93.60
2023-12-11T06:39:27.981Z,93.40
2023-12-11T06:42:13.745Z,93.40
2023-12-11T06:45:00.781Z,93.20
2023-12-11T06:47:46.411Z,93.00
2023-12-11T06:50:32.198Z,92.80
2023-12-11T06:53:18.639Z,92.80
2023-12-11T06:56:04.741Z,92.50
2023-12-11T06:58:50.860Z,92.70
2023-12-11T07:01:36.911Z,92.40
2023-12-11T07:04:22.777Z,91.80
2023-12-11T07:07:08.817Z,91.20
2023-12-11T07:09:54.788Z,91.20
2023-12-11T07:12:43.862Z,91.10
2023-12-11T07:15:29.980Z,90.60
2023-12-11T07:18:16.507Z,91.20
2023-12-11T07:21:02.407Z,90.70
2023-12-11T07:23:49.436Z,91.30
2023-12-11T07:26:35.049Z,91.10
2023-12-11T07:29:20.761Z,90.50
2023-12-11T07:32:06.955Z,90.00
2023-12-11T07:34:52.469Z,90.20
2023-12-11T07:37:40.040Z,90.00
2023-12-11T07:40:25.736Z,90.20
2023-12-11T07:43:12.951Z,90.50
2023-12-11T07:45:59.392Z,91.10
2023-12-11T07:48:45.660Z,91.20
2023-12-11T07:51:31.732Z,91.10
2023-12-11T07:54:17.245Z,91.20
2023-12-11T07:57:02.537Z,91.80
2023-12-11T07:59:47.988Z,91.60
2023-12-11T08:02:35.795Z,91.60
2023-12-11T08:05:21.536Z,91.90
2023-12-11T08:08:07.423Z,91.40
2023-12-11T08:10:53.265Z,91.00
2023-12-11T08:13:39.188Z,91.20
2023-12-11T08:16:24.866Z,91.40
2023-12-11T08:19:10.695Z,91.50
2023-12-11T08:21:56.639Z,91.80
2023-12-11T08:24:43.523Z,91.90
2023-12-11T08:27:29.003Z,92.00
2023-12-11T08:30:14.860Z,91.70
2023-12-11T08:33:00.627Z,91.60
2023-12-11T08:35:46.295Z,91.30
2023-12-11T08:38:32.619Z,92.00
2023-12-11T08:41:18.264Z,92.00
2023-12-11T08:44:04.670Z,91.80
2023-12-11T08:46:50.173Z,91.60
2023-12-11T08:49:36.132Z,91.50
2023-12-11T08:52:21.915Z,91.40
2023-12-11T08:55:07.995Z,91.40
2023-12-11T08:57:53.706Z,91.60
2023-12-11T09:00:39.637Z,91.10
2023-12-11T09:03:25.468Z,91.60
2023-12-11T09:06:17.086Z,91.40
2023-12-11T09:09:03.839Z,91.50
2023-12-11T09:11:50.005Z,91.90
2023-12-11T09:14:35.556Z,91.80
2023-12-11T09:17:20.937Z,91.60
2023-12-11T09:20:09.664Z,91.30
2023-12-11T09:22:55.478Z,91.30
2023-12-11T09:25:40.845Z,91.50
2023-12-11T09:28:31.465Z,91.80
2023-12-11T09:31:21.318Z,92.30
2023-12-11T09:34:07.351Z,92.50
2023-12-11T09:36:53.281Z,92.50
2023-12-11T09:39:40.619Z,92.60
2023-12-11T09:42:27.916Z,92.70
2023-12-11T09:45:14.700Z,92.80
2023-12-11T09:48:08.679Z,92.60
2023-12-11T09:51:01.638Z,92.10
2023-12-11T09:53:49.325Z,91.90
2023-12-11T09:56:35.803Z,91.60
2023-12-11T09:59:21.636Z,91.50
2023-12-11T10:02:18.207Z,91.60
2023-12-11T10:05:12.238Z,91.60
2023-12-11T10:07:57.876Z,91.70
2023-12-11T10:10:43.325Z,91.40
2023-12-11T10:13:29.794Z,91.30
2023-12-11T10:16:34.748Z,91.40
2023-12-11T10:19:34.128Z,91.60
2023-12-11T10:22:33.307Z,91.40
2023-12-11T10:25:28.933Z,91.80
2023-12-11T10:28:18.338Z,91.70
2023-12-11T10:31:05.861Z,91.40
2023-12-11T10:33:52.896Z,91.60
2023-12-11T10:36:50.167Z,91.50
2023-12-11T10:39:35.861Z,91.60
2023-12-11T10:42:21.425Z,91.20
2023-12-11T10:45:08.198Z,90.80
2023-12-11T10:47:53.929Z,90.80
2023-12-11T10:50:39.521Z,90.80
2023-12-11T10:53:25.902Z,91.00
2023-12-11T10:56:11.346Z,90.90
2023-12-11T10:58:59.136Z,91.20
2023-12-11T11:01:49.272Z,91.00
2023-12-11T11:04:41.053Z,90.90
2023-12-11T11:07:36.296Z,90.50
2023-12-11T11:10:33.197Z,90.70
2023-12-11T11:13:26.773Z,90.40
2023-12-11T11:16:12.512Z,90.60
2023-12-11T11:19:06.484Z,90.70
2023-12-11T11:22:01.861Z,90.50
2023-12-11T11:24:47.900Z,90.10
2023-12-11T11:27:43.403Z,90.00
2023-12-11T11:30:46.878Z,89.60
2023-12-11T11:33:51.017Z,89.10
2023-12-11T11:36:48.476Z,89.30
2023-12-11T11:39:56.611Z,89.70
2023-12-11T11:42:42.564Z,89.80
2023-12-11T11:45:28.451Z,89.90
2023-12-11T11:48:14.103Z,89.80
2023-12-11T11:51:00.350Z,89.80
2023-12-11T11:53:49.152Z,89.90
2023-12-11T11:56:46.417Z,89.70
2023-12-11T11:59:33.152Z,89.10
2023-12-11T12:02:24.150Z,89.30
2023-12-11T12:05:11.391Z,89.80
2023-12-11T12:07:58.627Z,89.90
2023-12-11T12:10:43.965Z,89.90
2023-12-11T12:13:34.719Z,89.80
2023-12-11T12:16:30.187Z,89.60
2023-12-11T12:19:16.872Z,89.60
2023-12-11T12:22:03.752Z,89.20
2023-12-11T12:24:50.273Z,89.30
2023-12-11T12:27:37.234Z,89.50
2023-12-11T12:30:23.597Z,89.80
2023-12-11T12:33:11.128Z,90.10
2023-12-11T12:35:56.992Z,89.80
2023-12-11T12:38:43.470Z,89.80
2023-12-11T12:41:30.813Z,90.10
2023-12-11T12:44:20.603Z,90.50
2023-12-11T12:47:06.023Z,90.50
2023-12-11T12:49:51.595Z,90.60
2023-12-11T12:52:38.414Z,90.80
2023-12-11T12:55:30.973Z,91.00
2023-12-11T12:58:25.197Z,91.10
2023-12-11T13:01:12.154Z,91.00
2023-12-11T13:04:01.684Z,90.90
2023-12-11T13:06:47.921Z,90.50
2023-12-11T13:09:33.784Z,90.30
2023-12-11T13:12:22.485Z,89.70
2023-12-11T13:15:08.947Z,89.60
2023-12-11T13:17:55.404Z,89.30
2023-12-11T13:20:41.123Z,89.40
2023-12-11T13:23:26.969Z,89.50
2023-12-11T13:26:16.011Z,89.00
2023-12-11T13:29:01.706Z,88.90
2023-12-11T13:31:48.326Z,89.10
2023-12-11T13:34:33.754Z,89.50
2023-12-11T13:37:20.864Z,89.30
2023-12-11T13:40:08.414Z,89.00
2023-12-11T13:42:55.538Z,89.20
2023-12-11T13:45:41.034Z,89.00
2023-12-11T13:48:31.839Z,89.00
2023-12-11T13:51:18.166Z,88.80
2023-12-11T13:54:03.632Z,88.70
2023-12-11T13:56:50.168Z,89.10
2023-12-11T13:59:35.521Z,89.20
2023-12-11T14:02:58.149Z,89.10
2023-12-11T14:05:26.707Z,89.30
2023-12-11T14:08:14.483Z,89.20
2023-12-11T14:11:00.364Z,89.40
2023-12-11T14:13:45.967Z,89.30
2023-12-11T14:16:32.994Z,89.40
2023-12-11T14:19:18.663Z,89.80
2023-12-11T14:22:04.612Z,90.20
2023-12-11T14:24:50.768Z,90.20
2023-12-11T14:27:36.652Z,90.10
2023-12-11T14:30:22.024Z,89.80
2023-12-11T14:33:08.357Z,89.70
2023-12-11T14:35:54.005Z,89.60
2023-12-11T14:38:39.423Z,89.60
2023-12-11T14:41:24.837Z,89.40
2023-12-11T14:44:11.317Z,89.70
2023-12-11T14:46:57.032Z,89.70
2023-12-11T14:49:42.816Z,89.60
2023-12-11T14:52:28.734Z,89.60
2023-12-11T14:55:24.296Z,90.10
2023-12-11T14:58:10.792Z,89.30
2023-12-11T15:00:56.822Z,89.80
2023-12-11T15:03:42.956Z,90.00
2023-12-11T15:06:28.882Z,90.10
2023-12-11T15:09:16.356Z,90.00
2023-12-11T15:12:02.669Z,89.70
2023-12-11T15:14:48.279Z,89.50
2023-12-11T15:17:34.476Z,89.50
2023-12-11T15:20:21.491Z,89.30
2023-12-11T15:23:07.010Z,89.30
2023-12-11T15:25:53.166Z,89.40
2023-12-11T15:28:42.836Z,89.30
2023-12-11T15:31:30.008Z,89.40
2023-12-11T15:34:16.052Z,89.40
2023-12-11T15:37:01.678Z,89.30
2023-12-11T15:39:47.007Z,89.30
2023-12-11T15:42:32.784Z,89.10
2023-12-11T15:45:18.454Z,88.60
2023-12-11T15:48:04.502Z,88.40
2023-12-11T15:50:50.193Z,88.60
2023-12-11T15:53:35.946Z,88.50
2023-12-11T15:56:22.148Z,88.70
2023-12-11T15:59:07.786Z,88.50
2023-12-11T16:01:53.276Z,88.30
2023-12-11T16:04:39.222Z,88.00
2023-12-11T16:07:26.126Z,88.20
2023-12-11T16:10:12.044Z,88.00
2023-12-11T16:12:58.079Z,88.30
2023-12-11T16:15:43.565Z,88.30
2023-12-11T16:18:29.549Z,88.40
2023-12-11T16:21:15.039Z,88.60
2023-12-11T16:24:00.972Z,88.10
2023-12-11T16:26:47.581Z,88.40
2023-12-11T16:29:35.521Z,88.70
2023-12-11T16:32:21.413Z,88.60
2023-12-11T16:35:07.576Z,88.40
2023-12-11T16:37:53.058Z,88.60
2023-12-11T16:40:40.886Z,88.60
2023-12-11T16:43:26.455Z,88.90
2023-12-11T16:46:12.059Z,89.00
2023-12-11T16:48:57.947Z,89.10
2023-12-11T16:51:44.684Z,88.90
2023-12-11T16:54:30.846Z,88.90
2023-12-11T16:57:16.701Z,88.40
2023-12-11T17:00:02.251Z,88.30
2023-12-11T17:02:47.859Z,88.30
2023-12-11T17:05:34.652Z,88.10
2023-12-11T17:08:20.109Z,87.80
2023-12-11T17:11:05.714Z,87.80
2023-12-11T17:13:51.054Z,87.70
2023-12-11T17:16:36.485Z,87.30
2023-12-11T17:19:22.065Z,86.80
2023-12-11T17:22:07.915Z,86.50
2023-12-11T17:24:54.156Z,86.10
2023-12-11T17:27:39.737Z,85.90
2023-12-11T17:30:25.045Z,85.50
2023-12-11T17:33:10.693Z,85.50
2023-12-11T17:35:56.621Z,85.10
2023-12-11T17:38:42.009Z,84.90
2023-12-11T17:41:27.701Z,84.90
2023-12-11T17:44:13.224Z,84.90
2023-12-11T17:46:59.029Z,84.90
2023-12-11T17:49:45.704Z,84.70
2023-12-11T17:52:31.880Z,85.00
2023-12-11T17:55:17.831Z,84.90
2023-12-11T17:58:03.175Z,84.80
2023-12-11T18:00:49.042Z,85.00
2023-12-11T18:03:35.765Z,85.00
2023-12-11T18:06:21.543Z,85.20
2023-12-11T18:09:07.416Z,85.40
2023-12-11T18:11:52.784Z,85.40
2023-12-11T18:14:38.227Z,85.20
2023-12-11T18:17:23.511Z,84.80
2023-12-11T18:20:10.168Z,85.10
2023-12-11T18:22:55.833Z,84.90
2023-12-11T18:25:41.162Z,84.80
2023-12-11T18:28:26.955Z,84.50
2023-12-11T18:31:12.832Z,84.50
2023-12-11T18:33:58.792Z,84.50
2023-12-11T18:36:45.175Z,84.20
2023-12-11T18:39:31.342Z,84.00
2023-12-11T18:42:16.686Z,84.00
2023-12-11T18:45:02.075Z,84.00
2023-12-11T18:47:47.371Z,84.00
2023-12-11T18:50:33.009Z,84.00
2023-12-11T18:53:18.678Z,84.20
2023-12-11T18:56:04.941Z,84.20
2023-12-11T18:58:51.112Z,84.00
2023-12-11T19:01:36.690Z,84.00
2023-12-11T19:04:22.446Z,83.70
2023-12-11T19:07:08.332Z,83.50
2023-12-11T19:09:53.783Z,83.50
2023-12-11T19:12:39.193Z,83.50
2023-12-11T19:15:24.926Z,83.60
2023-12-11T19:18:10.523Z,84.00
2023-12-11T19:20:56.454Z,83.80
2023-12-11T19:23:41.771Z,84.40
2023-12-11T19:26:27.378Z,84.30
2023-12-11T19:29:12.953Z,84.60
2023-12-11T19:31:58.675Z,84.90
2023-12-11T19:34:44.423Z,84.60
2023-12-11T19:37:30.696Z,84.40
2023-12-11T19:40:16.490Z,84.30
2023-12-11T19:43:02.447Z,84.30
2023-12-11T19:45:47.888Z,84.50
2023-12-11T19:48:33.986Z,84.40
2023-12-11T19:51:19.483Z,84.10
2023-12-11T19:54:05.913Z,83.90
2023-12-11T19:56:51.863Z,84.00
2023-12-11T19:59:37.370Z,83.70
2023-12-11T20:02:23.151Z,83.90
2023-12-11T20:05:09.141Z,83.60
2023-12-11T20:07:55.134Z,83.70
2023-12-11T20:10:40.614Z,83.80
2023-12-11T20:13:26.169Z,83.90
2023-12-11T20:16:11.670Z,83.70
2023-12-11T20:18:57.112Z,83.70
2023-12-11T20:21:42.821Z,83.70
2023-12-11T20:24:28.126Z,83.70
2023-12-11T20:27:13.606Z,83.30
2023-12-11T20:29:59.113Z,83.60
2023-12-11T20:32:44.906Z,83.40
2023-12-11T20:35:34.548Z,83.30
2023-12-11T20:38:20.259Z,83.10
2023-12-11T20:41:05.761Z,83.40
2023-12-11T20:43:58.931Z,83.20
2023-12-11T20:46:44.673Z,83.20
2023-12-11T20:49:30.219Z,83.30
2023-12-11T20:52:16.010Z,83.20
2023-12-11T20:55:01.399Z,83.20
2023-12-11T20:57:47.475Z,83.40
2023-12-11T21:00:33.063Z,83.40
2023-12-11T21:03:18.975Z,83.70
2023-12-11T21:06:04.498Z,84.00
2023-12-11T21:08:52.176Z,84.10
2023-12-11T21:11:38.379Z,84.50
2023-12-11T21:14:24.145Z,84.40
2023-12-11T21:17:09.681Z,84.60
2023-12-11T21:19:55.075Z,84.90
2023-12-11T21:22:40.896Z,85.00
2023-12-11T21:25:26.655Z,84.80
2023-12-11T21:28:12.405Z,84.80
2023-12-11T21:30:58.003Z,84.60
2023-12-11T21:33:43.426Z,84.30
2023-12-11T21:36:31.719Z,84.00
2023-12-11T21:39:17.984Z,84.00
2023-12-11T21:42:04.930Z,83.80
2023-12-11T21:44:50.410Z,83.80
2023-12-11T21:47:36.127Z,83.40
2023-12-11T21:50:22.195Z,83.40
2023-12-11T21:53:07.706Z,83.30
2023-12-11T21:55:53.321Z,83.30
2023-12-11T21:58:38.828Z,83.30
2023-12-11T22:01:24.398Z,83.20
2023-12-11T22:04:12.063Z,82.70
2023-12-11T22:06:57.720Z,82.80
2023-12-11T22:09:43.422Z,83.10
2023-12-11T22:12:28.973Z,82.80
2023-12-11T22:15:14.438Z,82.90
2023-12-11T22:17:59.942Z,82.90
2023-12-11T22:20:45.562Z,82.90
2023-12-11T22:23:31.034Z,83.10
2023-12-11T22:26:16.467Z,83.20
2023-12-11T22:29:01.851Z,83.50
2023-12-11T22:31:48.225Z,84.00
2023-12-11T22:34:34.189Z,84.20
2023-12-11T22:37:20.177Z,84.40
2023-12-11T22:40:09.414Z,84.60
2023-12-11T22:42:54.898Z,84.40
2023-12-11T22:45:40.601Z,84.60
2023-12-11T22:48:26.201Z,84.90
2023-12-11T22:51:11.915Z,84.80
2023-12-11T22:53:57.183Z,84.70
2023-12-11T22:56:42.732Z,85.00
2023-12-11T22:59:28.471Z,85.10
2023-12-11T23:02:13.956Z,85.30
2023-12-11T23:04:59.964Z,85.30
2023-12-11T23:07:47.707Z,85.50
2023-12-11T23:10:33.628Z,85.70
2023-12-11T23:13:19.300Z,85.50
2023-12-11T23:16:05.289Z,85.20
2023-12-11T23:18:50.928Z,85.20
2023-12-11T23:21:37.019Z,85.20
2023-12-11T23:24:22.469Z,85.20
2023-12-11T23:27:07.847Z,84.80
2023-12-11T23:30:00.285Z,84.50
2023-12-11T23:32:50.264Z,84.50
2023-12-11T23:35:36.084Z,84.50
2023-12-11T23:38:21.611Z,84.50
2023-12-11T23:41:07.131Z,84.40
2023-12-11T23:43:52.514Z,84.50
2023-12-11T23:46:38.095Z,84.50
2023-12-11T23:49:23.837Z,84.70
2023-12-11T23:52:09.569Z,84.70
2023-12-11T23:54:55.136Z,84.60
2023-12-11T23:57:40.361Z,84.40
